« Back
NWS Peachtree City, Ga » Text Product » MCN Terminal Aerodrome Forecast


Printer-friendly Version
Current Version              Previous Versions:   1  2  3  4  5  6  7  8  9  

Terminal Aerodrome Forecast

706
FTUS42 KFFC 201100
TAFMCN
TAF
KMCN 201120Z 2012/2112 04008G18KT P6SM BKN012
      TEMPO 2012/2014 OVC009
     FM202100 04011KT P6SM BKN040
     FM210000 04004KT P6SM FEW050 SCT250=



USA.gov is the U.S. government's official web portal to all federal, state and local government web resources and services.